Time;durP1;ratioP1;P1;durP2;ratioP2;P2;SDS_P1;SDS_P2;PMS_P1;PMS_P2;Temp;Humidity;BMP_temperature;BMP_pressure;BME280_temperature;BME280_humidity;BME280_pressure;Samples;Min_cycle;Max_cycle;Signal;HPM_P1;HPM_P2
2024/04/13 00:00:42;;;;;;;4.93;2.72;;;13.60;59.70;;;15.58;45.95;98894.81;5375191;26;20036;-36
2024/04/13 00:03:10;;;;;;;6.15;2.90;;;13.50;60.30;;;15.53;45.88;98892.63;5374924;26;20032;-36
2024/04/13 00:05:38;;;;;;;3.83;2.70;;;13.40;60.70;;;15.50;46.02;98889.41;5375553;26;20488;-36
2024/04/13 00:08:06;;;;;;;4.45;2.15;;;13.40;61.10;;;15.44;46.22;98887.38;5377667;26;20363;-36
2024/04/13 00:10:35;;;;;;;4.88;2.75;;;13.40;60.90;;;15.43;46.39;98889.22;5375150;26;20028;-36
2024/04/13 00:13:03;;;;;;;4.32;2.53;;;13.40;60.90;;;15.38;46.56;98883.50;5377207;26;20032;-36
2024/04/13 00:15:30;;;;;;;6.93;3.10;;;13.30;61.60;;;15.33;46.54;98880.44;5377217;26;20078;-36
2024/04/13 00:17:58;;;;;;;3.55;2.85;;;13.20;61.80;;;15.30;46.76;98881.63;5377119;26;20482;-36
2024/04/13 00:20:26;;;;;;;5.40;2.78;;;13.20;62.10;;;15.30;47.21;98875.44;5377141;26;20036;-36
2024/04/13 00:22:55;;;;;;;3.10;2.33;;;13.20;62.80;;;15.27;47.03;98873.88;5376869;26;20385;-36
2024/04/13 00:25:23;;;;;;;4.78;2.58;;;13.20;62.60;;;15.25;47.03;98869.69;5377665;26;20040;-36
2024/04/13 00:27:51;;;;;;;4.80;2.90;;;13.20;62.50;;;15.22;47.18;98867.31;5378826;26;20040;-36
2024/04/13 00:30:19;;;;;;;4.00;2.58;;;13.10;63.00;;;15.17;47.59;98865.13;5379283;26;20469;-36
2024/04/13 00:32:48;;;;;;;4.00;2.53;;;13.10;63.30;;;15.16;47.71;98866.16;5380144;26;20048;-36
2024/04/13 00:35:16;;;;;;;10.77;5.10;;;13.10;63.50;;;15.14;47.63;98860.94;5407280;26;20036;-36
2024/04/13 00:37:43;;;;;;;5.07;2.95;;;13.10;63.80;;;15.13;47.61;98855.72;5380351;26;20379;-36
2024/04/13 00:40:11;;;;;;;4.10;3.00;;;13.10;63.50;;;15.14;47.69;98858.25;5380267;26;20042;-36
2024/04/13 00:42:39;;;;;;;3.55;3.08;;;13.10;63.50;;;15.12;47.85;98849.53;5380579;26;20036;-36
2024/04/13 00:45:07;;;;;;;4.40;2.83;;;13.10;63.20;;;15.14;47.20;98843.97;5379704;26;20037;-36
2024/04/13 00:47:36;;;;;;;6.38;2.67;;;13.20;62.40;;;15.15;47.13;98841.16;5378232;26;20044;-35
2024/04/13 00:50:11;;;;;;;7.55;2.90;;;13.30;61.30;;;15.17;46.90;98841.00;5378100;26;20032;-35
2024/04/13 00:52:42;;;;;;;3.25;2.80;;;13.30;60.40;;;15.19;46.91;98835.47;5378312;26;20036;-35
2024/04/13 00:55:10;;;;;;;5.07;2.40;;;13.30;60.00;;;15.22;46.75;98833.31;5365839;26;20031;-36
2024/04/13 00:57:39;;;;;;;5.93;2.78;;;13.40;59.70;;;15.24;46.26;98838.53;5380004;26;20048;-36
2024/04/13 01:00:12;;;;;;;7.45;2.53;;;13.40;59.10;;;15.23;46.02;98829.59;5377558;26;20064;-36
2024/04/13 01:02:43;;;;;;;4.70;2.70;;;13.40;58.60;;;15.25;45.79;98838.34;5380289;26;20036;-36
2024/04/13 01:05:13;;;;;;;3.35;2.30;;;13.40;58.20;;;15.26;45.65;98833.84;5363729;26;20278;-36
2024/04/13 01:07:42;;;;;;;4.32;2.20;;;13.40;58.10;;;15.25;45.52;98842.88;5380025;26;20045;-36
2024/04/13 01:10:16;;;;;;;4.00;2.40;;;13.40;58.20;;;15.22;45.77;98838.69;5366172;26;20045;-36
2024/04/13 01:12:44;;;;;;;4.07;2.63;;;13.30;58.90;;;15.19;45.73;98835.47;5379917;26;20036;-36
2024/04/13 01:15:12;;;;;;;7.50;2.90;;;13.20;59.20;;;15.14;46.03;98827.88;5379354;26;20032;-36
2024/04/13 01:17:41;;;;;;;5.03;2.10;;;13.10;59.40;;;15.12;45.94;98832.56;5380495;26;20092;-36
2024/04/13 01:20:10;;;;;;;4.40;2.35;;;13.10;59.30;;;15.06;46.13;98828.72;5365342;26;20055;-36
2024/04/13 01:22:45;;;;;;;3.67;2.53;;;13.10;59.60;;;15.03;46.10;98829.03;5379814;26;20036;-36
2024/04/13 01:25:15;;;;;;;6.30;2.72;;;13.00;59.80;;;15.00;45.98;98834.72;5335252;26;20118;-37
2024/04/13 01:27:43;;;;;;;5.20;2.65;;;13.00;59.80;;;14.95;45.79;98829.84;5379624;26;20041;-36
2024/04/13 01:30:12;;;;;;;3.42;2.15;;;12.90;59.50;;;14.90;46.35;98831.31;5377976;26;20032;-36
2024/04/13 01:32:40;;;;;;;4.63;2.45;;;12.80;60.10;;;14.86;46.42;98832.63;5377469;26;20048;-36
2024/04/13 01:35:13;;;;;;;4.13;2.20;;;12.80;60.60;;;14.82;46.46;98829.44;5376372;26;20032;-36
2024/04/13 01:37:42;;;;;;;3.63;2.53;;;12.70;60.80;;;14.78;46.59;98822.72;5378892;26;20029;-36
2024/04/13 01:40:10;;;;;;;3.20;2.47;;;12.70;60.70;;;14.76;46.44;98820.19;5379329;26;20044;-36
2024/04/13 01:42:44;;;;;;;4.40;2.40;;;12.70;60.40;;;14.75;46.42;98834.59;5379437;26;20481;-36
2024/04/13 01:45:12;;;;;;;3.85;2.33;;;12.70;60.20;;;14.73;46.39;98833.91;5378652;26;20039;-36
2024/04/13 01:47:40;;;;;;;3.85;2.47;;;12.70;60.20;;;14.69;46.49;98837.88;5377155;26;20039;-36
2024/04/13 01:50:08;;;;;;;4.90;2.13;;;12.60;60.90;;;14.63;46.57;98830.50;5379283;26;20544;-36
2024/04/13 01:52:36;;;;;;;6.30;2.67;;;12.50;61.10;;;14.61;46.85;98835.16;5379302;26;20048;-36
2024/04/13 01:55:04;;;;;;;5.22;2.35;;;12.60;61.30;;;14.60;46.75;98838.00;5378650;26;20051;-36
2024/04/13 01:57:32;;;;;;;5.97;2.28;;;12.50;61.30;;;14.56;47.19;98834.78;5393065;26;20037;-36
2024/04/13 02:00:00;;;;;;;4.53;2.25;;;12.50;61.90;;;14.53;46.91;98838.59;5379047;26;20028;-36
2024/04/13 02:02:31;;;;;;;3.35;2.28;;;12.50;61.40;;;14.53;46.77;98843.13;5379552;26;20028;-37
2024/04/13 02:04:58;;;;;;;3.83;2.95;;;12.50;61.30;;;14.54;46.91;98839.47;5378720;26;20043;-35
2024/04/13 02:07:29;;;;;;;5.70;2.22;;;12.50;61.30;;;14.53;47.05;98843.13;5378969;26;20045;-36
2024/04/13 02:09:56;;;;;;;3.20;2.17;;;12.50;61.20;;;14.53;46.79;98849.31;5379063;26;20044;-36
2024/04/13 02:12:25;;;;;;;3.33;2.47;;;12.50;61.20;;;14.52;46.88;98849.47;5378774;26;20039;-36
2024/04/13 02:14:52;;;;;;;7.18;2.45;;;12.60;61.30;;;14.51;47.00;98847.81;5378625;26;20040;-36
2024/04/13 02:17:23;;;;;;;4.43;2.58;;;12.50;61.50;;;14.50;47.20;98838.06;5378595;26;20036;-36
2024/04/13 02:19:51;;;;;;;3.10;2.70;;;12.50;61.50;;;14.48;47.18;98846.28;5379086;26;20040;-36
2024/04/13 02:22:19;;;;;;;4.07;2.42;;;12.40;61.60;;;14.47;47.12;98846.44;5378972;26;20039;-36
2024/04/13 02:24:47;;;;;;;3.40;2.33;;;12.50;61.90;;;14.43;47.23;98843.22;5376761;26;20363;-36
2024/04/13 02:27:14;;;;;;;4.15;2.70;;;12.40;62.10;;;14.40;47.44;98846.22;5378705;26;20039;-36
2024/04/13 02:29:43;;;;;;;4.00;2.55;;;12.30;63.00;;;14.37;47.34;98833.97;5376885;26;20346;-36
2024/04/13 02:32:11;;;;;;;4.28;2.50;;;12.30;62.20;;;14.35;47.57;98833.28;5378416;26;20035;-36
2024/04/13 02:34:39;;;;;;;3.65;2.80;;;12.30;62.40;;;14.33;47.37;98827.25;5377727;26;20083;-36
2024/04/13 02:37:07;;;;;;;2.92;2.40;;;12.30;62.30;;;14.31;47.56;98829.25;5379379;26;20045;-36
2024/04/13 02:39:37;;;;;;;6.25;2.83;;;12.30;62.00;;;14.31;47.24;98831.94;5378702;26;20364;-36
2024/04/13 02:42:06;;;;;;;3.17;2.40;;;12.40;61.60;;;14.30;47.42;98827.56;5378804;26;20483;-36
2024/04/13 02:44:35;;;;;;;5.50;2.47;;;12.40;61.60;;;14.29;47.54;98828.56;5370519;26;20033;-36
2024/04/13 02:47:02;;;;;;;4.97;2.50;;;12.30;62.60;;;14.27;47.70;98833.25;5362077;26;20028;-36
2024/04/13 02:49:30;;;;;;;2.95;1.98;;;12.30;62.00;;;14.27;47.24;98835.06;5377107;26;20036;-36
2024/04/13 02:51:58;;;;;;;6.55;3.03;;;12.30;61.80;;;14.22;47.49;98830.19;5378227;26;20368;-36
2024/04/13 02:54:26;;;;;;;5.13;2.72;;;12.20;61.90;;;14.20;47.46;98832.16;5378085;26;20032;-36
2024/04/13 02:56:54;;;;;;;4.43;2.95;;;12.20;62.50;;;14.16;47.89;98837.00;5378735;26;20036;-36
2024/04/13 02:59:21;;;;;;;3.63;2.55;;;12.20;63.00;;;14.13;47.59;98831.97;5378109;26;20036;-35
2024/04/13 03:01:49;;;;;;;2.60;2.22;;;12.10;62.90;;;14.12;47.90;98838.31;5378396;26;20052;-36
2024/04/13 03:04:17;;;;;;;3.05;2.40;;;12.10;63.10;;;14.11;47.69;98836.63;5377989;26;20032;-36
2024/04/13 03:06:45;;;;;;;2.92;2.25;;;12.10;63.40;;;14.10;48.00;98839.47;5347259;26;20036;-36
2024/04/13 03:09:13;;;;;;;4.75;2.25;;;12.10;63.60;;;14.06;48.07;98838.09;5377611;26;20032;-35
2024/04/13 03:11:41;;;;;;;5.57;2.42;;;12.10;63.80;;;14.04;48.27;98838.25;5405639;26;20036;-36
2024/04/13 03:14:09;;;;;;;3.72;2.63;;;12.00;64.10;;;14.02;48.23;98834.03;5377732;26;20044;-36
2024/04/13 03:16:36;;;;;;;3.33;2.13;;;11.90;64.20;;;13.99;48.22;98838.69;5378094;26;20468;-36
2024/04/13 03:19:04;;;;;;;4.63;2.63;;;11.90;64.30;;;14.00;48.38;98839.53;5377027;26;20040;-36
2024/04/13 03:21:35;;;;;;;4.40;2.65;;;12.00;64.10;;;13.98;48.23;98834.34;5377137;26;20040;-36
2024/04/13 03:24:04;;;;;;;5.95;3.55;;;12.00;64.30;;;14.00;48.36;98831.50;5377743;26;20040;-36
2024/04/13 03:26:31;;;;;;;4.20;2.90;;;12.00;64.00;;;13.99;48.53;98822.63;5376092;26;20000;-36
2024/04/13 03:29:00;;;;;;;3.47;2.40;;;12.00;63.80;;;13.97;48.48;98826.44;5388914;26;20036;-36
2024/04/13 03:31:27;;;;;;;2.80;2.30;;;12.00;64.20;;;13.92;48.38;98829.59;5376588;26;20055;-36
2024/04/13 03:33:58;;;;;;;2.58;2.20;;;11.80;64.60;;;13.89;48.73;98827.22;5377223;26;20064;-36
2024/04/13 03:36:27;;;;;;;3.13;2.47;;;11.80;64.90;;;13.88;48.44;98824.69;5377270;26;20420;-36
2024/04/13 03:38:59;;;;;;;4.88;2.42;;;11.80;64.70;;;13.86;48.57;98827.56;5378094;26;20036;-36
2024/04/13 03:41:27;;;;;;;4.45;2.30;;;11.80;64.50;;;13.84;48.58;98824.19;5376065;26;20036;-36
2024/04/13 03:43:55;;;;;;;5.80;3.38;;;11.80;64.50;;;13.81;48.78;98826.31;5361278;26;20052;-36
2024/04/13 03:46:23;;;;;;;4.22;2.78;;;11.80;65.10;;;13.80;48.93;98825.47;5376622;26;20048;-37
2024/04/13 03:48:51;;;;;;;4.32;3.15;;;11.70;65.50;;;13.77;48.95;98829.28;5390013;26;20048;-36
2024/04/13 03:51:19;;;;;;;6.35;2.67;;;11.70;65.50;;;13.77;49.15;98829.28;5375637;26;20036;-36
2024/04/13 03:53:47;;;;;;;5.47;3.03;;;11.70;65.70;;;13.75;48.99;98831.28;5377448;26;20040;-36
2024/04/13 03:56:16;;;;;;;7.18;2.50;;;11.70;65.70;;;13.74;49.13;98837.63;5377414;26;20468;-37
2024/04/13 03:58:44;;;;;;;5.45;3.65;;;11.70;65.70;;;13.72;49.29;98831.56;5377668;26;20500;-36
2024/04/13 04:01:12;;;;;;;4.35;2.97;;;11.70;65.50;;;13.72;48.97;98833.41;5378210;26;20052;-36
2024/04/13 04:03:40;;;;;;;4.05;2.67;;;11.70;65.60;;;13.70;49.10;98830.88;5380662;26;20020;-36
2024/04/13 04:06:08;;;;;;;5.40;2.83;;;11.70;65.10;;;13.69;49.21;98834.56;5380976;26;20421;-36
2024/04/13 04:08:36;;;;;;;3.90;3.05;;;11.70;65.60;;;13.66;49.42;98820.66;5380792;26;20032;-36
2024/04/13 04:11:03;;;;;;;5.35;2.83;;;11.70;65.90;;;13.65;49.10;98824.31;5380609;26;20028;-36
2024/04/13 04:13:32;;;;;;;7.43;2.90;;;11.60;66.40;;;13.63;49.46;98826.28;5380060;26;20160;-36
2024/04/13 04:16:00;;;;;;;6.30;2.95;;;11.60;66.20;;;13.62;49.34;98820.09;5377953;26;20059;-36
2024/04/13 04:18:28;;;;;;;5.72;2.78;;;11.60;65.90;;;13.62;49.56;98814.75;5378620;26;20041;-36
2024/04/13 04:20:56;;;;;;;3.27;2.23;;;11.60;65.80;;;13.60;49.21;98814.06;5380204;26;20029;-36
2024/04/13 04:23:24;;;;;;;4.15;2.70;;;11.60;66.10;;;13.61;49.74;98818.44;5380219;26;20032;-36
2024/04/13 04:25:52;;;;;;;9.30;3.67;;;11.60;66.00;;;13.58;49.47;98824.91;5380519;26;20040;-36
2024/04/13 04:28:19;;;;;;;4.30;2.47;;;11.60;66.10;;;13.56;49.52;98821.56;5380191;26;20041;-36
2024/04/13 04:30:47;;;;;;;4.07;2.80;;;11.60;66.00;;;13.57;49.38;98822.38;5380617;26;20040;-37
2024/04/13 04:33:15;;;;;;;4.77;2.70;;;11.60;66.40;;;13.58;49.59;98826.75;5379835;26;20040;-36
2024/04/13 04:35:43;;;;;;;4.97;2.85;;;11.60;66.60;;;13.62;49.52;98821.94;5379679;26;20032;-36
2024/04/13 04:38:12;;;;;;;7.53;2.63;;;11.70;66.40;;;13.63;49.75;98821.81;5380310;26;20048;-36
2024/04/13 04:40:40;;;;;;;4.63;3.53;;;11.70;66.20;;;13.65;49.73;98810.91;5407586;26;20032;-36
2024/04/13 04:43:08;;;;;;;4.50;2.75;;;11.70;66.00;;;13.66;50.10;98816.13;5379865;26;20032;-37
2024/04/13 04:45:36;;;;;;;3.92;2.75;;;11.70;66.00;;;13.65;49.96;98809.13;5380148;26;20032;-37
2024/04/13 04:48:08;;;;;;;4.55;2.70;;;11.70;65.90;;;13.68;49.78;98816.81;5381007;26;20032;-37
2024/04/13 04:50:36;;;;;;;6.70;3.13;;;11.80;65.60;;;13.70;49.93;98817.50;5380108;26;20044;-37
2024/04/13 04:53:04;;;;;;;2.70;2.40;;;11.90;65.30;;;13.76;49.51;98826.75;5380294;26;20028;-37
2024/04/13 04:55:32;;;;;;;3.85;2.30;;;12.00;65.10;;;13.78;49.80;98814.06;5380344;26;20032;-37
2024/04/13 04:58:00;;;;;;;6.07;2.70;;;12.00;65.00;;;13.82;49.74;98819.97;5380284;26;20464;-37
2024/04/13 05:00:27;;;;;;;4.10;2.38;;;12.00;64.90;;;13.82;49.78;98823.47;5380993;26;20028;-37
2024/04/13 05:02:55;;;;;;;6.20;2.50;;;12.00;65.30;;;13.81;50.00;98821.81;5380096;26;20040;-37
2024/04/13 05:05:23;;;;;;;4.07;2.90;;;11.90;65.70;;;13.81;50.00;98826.31;5379698;26;20028;-37
2024/04/13 05:07:51;;;;;;;4.10;2.63;;;11.90;65.70;;;13.78;50.28;98822.97;5378676;26;20032;-36
2024/04/13 05:10:21;;;;;;;5.60;3.00;;;11.90;66.30;;;13.75;50.13;98825.09;5380018;26;20036;-37
2024/04/13 05:12:48;;;;;;;3.70;3.10;;;11.80;67.10;;;13.72;50.17;98830.75;5376573;26;20040;-37
2024/04/13 05:15:16;;;;;;;4.60;2.53;;;11.70;67.50;;;13.70;50.71;98819.34;5379912;26;20464;-37
2024/04/13 05:17:44;;;;;;;3.75;2.72;;;11.70;67.70;;;13.66;50.52;98816.13;5380809;26;20036;-37
2024/04/13 05:20:12;;;;;;;4.97;3.30;;;11.70;68.10;;;13.65;50.83;98817.13;5380096;26;20041;-37
2024/04/13 05:22:40;;;;;;;4.93;3.20;;;11.60;68.50;;;13.66;50.49;98821.47;5379884;26;20044;-37
2024/04/13 05:25:07;;;;;;;6.38;3.22;;;11.70;68.50;;;13.67;50.60;98815.16;5379276;26;20040;-37
2024/04/13 05:27:35;;;;;;;5.32;2.83;;;11.70;68.50;;;13.70;50.82;98820.19;5377694;26;20008;-37
2024/04/13 05:30:04;;;;;;;4.18;3.22;;;11.80;68.90;;;13.70;51.07;98816.66;5379804;26;20035;-36
2024/04/13 05:32:33;;;;;;;6.03;3.55;;;11.80;69.30;;;13.72;51.13;98818.19;5379268;26;20155;-37
2024/04/13 05:35:01;;;;;;;5.78;4.10;;;11.80;69.60;;;13.75;51.03;98820.56;5378954;26;20368;-37
2024/04/13 05:37:28;;;;;;;3.35;2.80;;;11.90;69.40;;;13.80;51.54;98817.44;5365190;26;20037;-37
2024/04/13 05:39:56;;;;;;;3.17;2.47;;;12.00;68.90;;;13.84;51.39;98824.19;5379554;26;20032;-37
2024/04/13 05:42:24;;;;;;;3.53;2.90;;;12.00;68.60;;;13.88;51.32;98825.56;5379791;26;20036;-37
2024/04/13 05:44:52;;;;;;;7.97;3.25;;;12.10;68.60;;;13.89;51.63;98823.72;5378975;26;20670;-37
2024/04/13 05:47:20;;;;;;;3.95;2.50;;;12.10;68.70;;;13.91;51.22;98832.44;5379327;26;20032;-37
2024/04/13 05:49:50;;;;;;;3.60;2.75;;;12.10;68.50;;;13.95;51.38;98829.28;5406771;26;20029;-37
2024/04/13 05:52:18;;;;;;;4.28;2.75;;;12.20;68.40;;;14.01;51.29;98830.50;5379573;26;20351;-37
2024/04/13 05:54:45;;;;;;;4.47;2.88;;;12.30;68.20;;;14.04;51.37;98832.88;5378687;26;20032;-37
2024/04/13 05:57:13;;;;;;;5.50;3.15;;;12.40;68.10;;;14.09;51.67;98835.09;5379369;26;20044;-37
2024/04/13 05:59:41;;;;;;;4.97;3.05;;;12.40;68.10;;;14.13;51.59;98841.81;5379480;26;20377;-37
2024/04/13 06:02:09;;;;;;;4.70;3.50;;;12.40;67.90;;;14.17;51.26;98833.34;5379319;26;20036;-36
2024/04/13 06:04:37;;;;;;;7.75;3.80;;;12.50;67.90;;;14.23;51.59;98834.56;5378567;26;20361;-37
2024/04/13 06:07:04;;;;;;;3.67;3.25;;;12.60;68.10;;;14.29;51.50;98835.78;5376745;26;20048;-37
2024/04/13 06:09:32;;;;;;;6.10;2.70;;;12.60;68.10;;;14.35;51.70;98841.31;5365401;26;20032;-37
2024/04/13 06:12:00;;;;;;;5.20;3.20;;;12.70;67.80;;;14.44;51.39;98838.69;5379153;26;20488;-37
2024/04/13 06:14:28;;;;;;;4.38;3.22;;;12.90;67.60;;;14.54;51.77;98842.16;5378454;26;20049;-37
2024/04/13 06:16:56;;;;;;;5.65;2.97;;;13.00;67.60;;;14.62;51.58;98841.34;5378930;26;20040;-37
2024/04/13 06:19:23;;;;;;;5.28;3.97;;;13.10;67.50;;;14.69;51.52;98850.47;5378930;26;20036;-36
2024/04/13 06:21:51;;;;;;;5.70;2.97;;;13.20;67.60;;;14.74;51.59;98856.19;5378740;26;20052;-37
2024/04/13 06:24:19;;;;;;;5.43;2.78;;;13.30;67.50;;;14.82;51.86;98847.38;5377726;26;20032;-37
2024/04/13 06:26:47;;;;;;;6.15;4.00;;;13.30;68.50;;;14.84;52.58;98861.44;5378767;26;20385;-37
2024/04/13 06:29:14;;;;;;;9.45;5.22;;;13.30;71.00;;;14.84;53.09;98866.81;5348860;26;20032;-37
2024/04/13 06:31:42;;;;;;;6.43;4.68;;;13.30;72.70;;;14.84;53.81;98858.75;5388857;26;20039;-37
2024/04/13 06:34:12;;;;;;;5.78;4.38;;;13.30;74.20;;;14.85;53.77;98860.44;5378202;26;20475;-37
2024/04/13 06:36:40;;;;;;;6.95;3.80;;;13.30;74.00;;;14.88;54.02;98858.28;5378968;26;20032;-37
2024/04/13 06:39:14;;;;;;;7.03;4.35;;;13.30;73.40;;;14.93;53.38;98863.19;5378693;26;20487;-37
2024/04/13 06:41:43;;;;;;;4.75;3.67;;;13.40;72.20;;;15.00;52.80;98866.06;5378895;26;20109;-37
2024/04/13 06:44:11;;;;;;;6.70;3.92;;;13.50;70.20;;;15.06;52.62;98860.03;5378049;26;20337;-37
2024/04/13 06:46:39;;;;;;;6.75;3.80;;;13.60;69.20;;;15.11;52.42;98858.56;5378420;26;20031;-37
2024/04/13 06:49:07;;;;;;;5.85;3.58;;;13.60;68.70;;;15.19;52.41;98860.44;5377840;26;20028;-37
2024/04/13 06:51:35;;;;;;;4.10;3.42;;;13.70;68.80;;;15.26;52.47;98868.72;5364104;26;20036;-37
2024/04/13 06:54:03;;;;;;;6.57;4.68;;;13.70;68.80;;;15.31;52.64;98872.56;5375596;26;20040;-38
2024/04/13 06:56:32;;;;;;;7.72;4.40;;;13.80;69.30;;;15.38;52.45;98874.63;5378064;26;20004;-37
2024/04/13 06:58:59;;;;;;;4.25;3.63;;;13.90;69.40;;;15.42;52.63;98873.28;5378066;26;20489;-37
2024/04/13 07:01:27;;;;;;;5.25;4.18;;;13.90;69.10;;;15.47;52.61;98885.22;5375829;26;20036;-37
2024/04/13 07:03:56;;;;;;;6.95;3.88;;;14.00;69.20;;;15.50;52.73;98882.19;5377710;26;20503;-37
2024/04/13 07:06:26;;;;;;;6.75;4.18;;;14.10;69.40;;;15.55;52.98;98871.81;5405555;26;20044;-37
2024/04/13 07:08:54;;;;;;;7.10;4.63;;;14.10;69.80;;;15.60;52.80;98876.69;5378064;26;20028;-37
2024/04/13 07:11:21;;;;;;;5.18;4.00;;;14.20;69.70;;;15.64;52.85;98874.53;5375914;26;20040;-37
2024/04/13 07:13:49;;;;;;;6.13;4.53;;;14.20;69.70;;;15.67;52.88;98871.53;5378111;26;20035;-37
2024/04/13 07:16:17;;;;;;;7.97;4.65;;;14.30;69.50;;;15.72;53.04;98871.84;5377866;26;20055;-37
2024/04/13 07:18:46;;;;;;;5.80;4.10;;;14.30;69.20;;;15.77;52.91;98866.03;5378177;26;20484;-37
2024/04/13 07:21:14;;;;;;;8.05;3.95;;;14.40;69.40;;;15.81;52.64;98870.06;5378094;26;20044;-37
2024/04/13 07:23:42;;;;;;;7.25;5.07;;;14.40;69.10;;;15.86;52.83;98878.47;5378111;26;20040;-37
2024/04/13 07:26:10;;;;;;;6.32;4.50;;;14.50;68.80;;;15.91;52.59;98870.75;5377708;26;20044;-37
2024/04/13 07:28:38;;;;;;;8.18;4.10;;;14.50;68.90;;;15.97;52.44;98863.88;5364019;26;20040;-37
2024/04/13 07:31:06;;;;;;;6.05;3.97;;;14.50;68.60;;;16.01;52.78;98873.28;5377661;26;20368;-37
2024/04/13 07:33:33;;;;;;;7.53;4.50;;;14.60;68.50;;;16.06;52.38;98874.47;5404402;26;20029;-37
2024/04/13 07:36:02;;;;;;;5.93;4.80;;;14.70;68.40;;;16.11;52.83;98866.75;5379987;26;20040;-37
2024/04/13 07:38:30;;;;;;;7.65;4.80;;;14.70;68.80;;;16.14;52.87;98871.78;5381238;26;20040;-37
2024/04/13 07:40:58;;;;;;;7.93;4.40;;;14.80;68.90;;;16.19;52.65;98867.75;5378854;26;20048;-37
2024/04/13 07:43:26;;;;;;;7.15;4.63;;;14.80;69.00;;;16.23;52.99;98859.22;5380036;26;20041;-37
2024/04/13 07:45:54;;;;;;;8.27;5.45;;;14.80;69.90;;;16.28;53.06;98862.22;5381254;26;20031;-37
2024/04/13 07:48:21;;;;;;;6.10;4.40;;;14.90;69.30;;;16.33;53.10;98862.56;5380888;26;20049;-37
2024/04/13 07:50:49;;;;;;;7.55;4.45;;;15.00;69.10;;;16.40;52.94;98860.06;5380410;26;20044;-37
2024/04/13 07:53:17;;;;;;;5.10;3.97;;;15.00;69.00;;;16.48;52.84;98860.03;5380485;26;20112;-37
2024/04/13 07:55:45;;;;;;;7.13;5.40;;;15.10;68.60;;;16.55;52.79;98854.81;5380785;26;20043;-37
2024/04/13 07:58:13;;;;;;;8.07;5.18;;;15.20;68.80;;;16.65;52.89;98857.31;5380980;26;20036;-37
2024/04/13 08:00:40;;;;;;;8.23;4.63;;;15.30;68.90;;;16.70;53.00;98861.16;5380614;26;20460;-37
2024/04/13 08:03:08;;;;;;;7.65;5.07;;;15.40;68.30;;;16.77;52.61;98849.72;5380086;26;20365;-37
2024/04/13 08:05:36;;;;;;;8.60;4.82;;;15.50;68.40;;;16.83;52.42;98849.94;5380897;26;20367;-37
2024/04/13 08:08:04;;;;;;;7.93;4.38;;;15.60;68.00;;;16.89;52.18;98843.84;5380609;26;20036;-37
2024/04/13 08:10:37;;;;;;;6.22;4.53;;;15.60;67.70;;;16.97;52.47;98845.69;5380296;26;20063;-37
2024/04/13 08:13:05;;;;;;;8.85;4.35;;;15.70;67.60;;;17.03;51.91;98847.69;5380493;26;20056;-37
2024/04/13 08:15:38;;;;;;;9.18;4.63;;;15.80;67.20;;;17.11;52.38;98836.03;5380792;26;20496;-37
2024/04/13 08:18:06;;;;;;;7.03;3.92;;;15.80;67.00;;;17.19;52.08;98832.50;5380989;26;20386;-37
2024/04/13 08:20:34;;;;;;;5.00;3.28;;;15.90;66.70;;;17.25;51.69;98837.16;5380637;26;20033;-37
2024/04/13 08:23:03;;;;;;;5.45;3.65;;;16.00;65.40;;;17.31;51.31;98826.56;5380587;26;20487;-37
2024/04/13 08:25:31;;;;;;;8.73;3.95;;;16.00;65.10;;;17.40;51.24;98824.66;5407461;26;20047;-37
2024/04/13 08:27:58;;;;;;;7.60;3.63;;;16.10;65.00;;;17.49;51.00;98826.28;5373525;26;20043;-37
2024/04/13 08:30:26;;;;;;;6.70;3.47;;;16.20;64.60;;;17.57;50.69;98814.63;5380416;26;20731;-37
2024/04/13 08:32:54;;;;;;;4.95;3.60;;;16.30;63.60;;;17.64;49.99;98817.44;5380093;26;20045;-37
2024/04/13 08:35:26;;;;;;;4.43;3.03;;;16.40;63.00;;;17.73;50.14;98819.06;5378862;26;20109;-37
2024/04/13 08:37:54;;;;;;;6.07;2.67;;;16.50;62.50;;;17.80;49.83;98816.53;5380374;26;20043;-37
2024/04/13 08:40:21;;;;;;;6.97;3.47;;;16.50;61.90;;;17.84;49.36;98815.16;5380391;26;20029;-37
2024/04/13 08:42:53;;;;;;;4.85;2.85;;;16.60;61.70;;;17.88;49.44;98811.94;5380265;26;20103;-37
2024/04/13 08:45:22;;;;;;;5.82;3.13;;;16.60;60.70;;;17.94;48.73;98812.25;5380197;26;20333;-37
2024/04/13 08:47:53;;;;;;;7.43;2.97;;;16.70;60.90;;;17.98;48.89;98810.84;5377735;26;20032;-37
2024/04/13 08:50:21;;;;;;;7.93;3.38;;;16.70;61.00;;;18.00;48.97;98812.34;5380347;26;20044;-37
2024/04/13 08:52:51;;;;;;;6.15;3.30;;;16.70;60.60;;;18.04;48.86;98813.66;5367050;26;20064;-38
2024/04/13 08:55:22;;;;;;;7.03;3.38;;;16.80;60.60;;;18.12;49.08;98801.97;5382974;26;20032;-37
2024/04/13 08:57:51;;;;;;;5.10;3.00;;;16.80;60.60;;;18.19;48.90;98808.31;5384322;26;20032;-37
2024/04/13 09:00:22;;;;;;;4.03;2.85;;;17.00;60.70;;;18.29;48.45;98795.41;5383606;26;20031;-36
2024/04/13 09:02:55;;;;;;;6.45;3.00;;;17.00;60.30;;;18.37;48.51;98802.59;5384208;26;20047;-36
2024/04/13 09:05:27;;;;;;;5.38;3.72;;;17.20;60.00;;;18.46;48.45;98797.97;5384130;26;20499;-36
2024/04/13 09:07:58;;;;;;;3.75;3.03;;;17.20;59.70;;;18.54;48.48;98789.78;5415400;26;20028;-36
2024/04/13 09:10:27;;;;;;;7.13;3.70;;;17.30;59.80;;;18.61;47.79;98788.03;5384481;26;20664;-36
2024/04/13 09:12:54;;;;;;;5.75;3.45;;;17.40;59.10;;;18.67;47.95;98783.78;5415749;26;20031;-36
2024/04/13 09:15:22;;;;;;;5.15;3.60;;;17.40;59.20;;;18.75;47.86;98782.84;5414436;26;20037;-36
2024/04/13 09:17:52;;;;;;;5.35;4.13;;;17.50;59.20;;;18.82;47.54;98786.47;5400821;26;20035;-36
2024/04/13 09:20:22;;;;;;;4.53;2.90;;;17.60;58.90;;;18.89;47.49;98785.53;5382871;26;20032;-36
2024/04/13 09:22:53;;;;;;;4.72;3.35;;;17.70;59.10;;;18.96;47.57;98782.97;5383962;26;20043;-36
2024/04/13 09:25:22;;;;;;;6.25;3.33;;;17.80;58.80;;;19.00;47.32;98786.94;5383796;26;20040;-36
2024/04/13 09:28:03;;;;;;;5.55;3.63;;;17.80;58.60;;;19.03;47.59;98783.84;5415224;26;20031;-36
2024/04/13 09:30:31;;;;;;;5.50;3.58;;;17.90;58.10;;;19.10;47.37;98783.97;5413898;26;20082;-36
2024/04/13 09:33:06;;;;;;;5.70;4.07;;;18.00;58.80;;;19.17;47.32;98782.16;5411943;26;20498;-36
2024/04/13 09:35:35;;;;;;;5.85;3.83;;;18.00;58.10;;;19.18;47.16;98777.63;5383821;26;20048;-36
2024/04/13 09:38:03;;;;;;;4.75;3.63;;;18.00;58.00;;;19.24;47.11;98772.28;5415062;26;20027;-36
2024/04/13 09:40:31;;;;;;;6.20;4.13;;;18.10;58.30;;;19.32;47.33;98765.94;5415561;26;20031;-36
2024/04/13 09:43:00;;;;;;;8.07;4.22;;;18.10;58.70;;;19.35;47.03;98770.97;5414922;26;20031;-36
2024/04/13 09:45:28;;;;;;;7.63;3.53;;;18.20;57.40;;;19.38;46.89;98761.66;5414513;26;20027;-36
2024/04/13 09:47:59;;;;;;;3.95;3.38;;;18.30;57.70;;;19.43;47.23;98764.63;5414593;26;20031;-36
2024/04/13 09:50:28;;;;;;;5.43;3.50;;;18.30;58.10;;;19.46;46.67;98770.47;5415160;26;20047;-36
2024/04/13 09:53:00;;;;;;;12.70;3.83;;;18.40;56.50;;;19.48;46.60;98756.75;5414871;26;20035;-36
2024/04/13 09:55:29;;;;;;;6.50;3.17;;;18.40;57.30;;;19.56;46.76;98761.22;5383874;26;20023;-36
2024/04/13 09:57:58;;;;;;;4.35;3.60;;;18.40;57.60;;;19.64;46.56;98755.72;5383071;26;20039;-36
2024/04/13 10:00:27;;;;;;;6.57;3.80;;;18.50;57.20;;;19.68;46.06;98749.72;5414594;26;20039;-36
2024/04/13 10:02:55;;;;;;;4.05;3.30;;;18.60;56.80;;;19.74;46.10;98742.75;5414224;26;20044;-36
2024/04/13 10:05:26;;;;;;;6.18;4.45;;;18.60;56.90;;;19.78;46.04;98733.22;5413495;26;20521;-36
2024/04/13 10:07:55;;;;;;;6.45;3.55;;;18.70;56.70;;;19.81;46.01;98734.69;5383183;26;20063;-37
2024/04/13 10:10:25;;;;;;;7.03;3.33;;;18.80;56.60;;;19.89;46.03;98734.56;5382156;26;20032;-37
2024/04/13 10:12:54;;;;;;;6.68;3.80;;;18.80;57.20;;;19.97;46.18;98731.72;5383634;26;20031;-37
2024/04/13 10:15:25;;;;;;;5.93;3.55;;;18.90;56.70;;;20.06;46.15;98727.84;5382672;26;20032;-37
2024/04/13 10:17:53;;;;;;;10.25;4.10;;;19.00;56.50;;;20.12;45.87;98720.78;5414635;26;20024;-37
2024/04/13 10:20:21;;;;;;;5.05;3.53;;;19.10;56.30;;;20.21;45.64;98726.91;5414281;26;20573;-37
2024/04/13 10:22:55;;;;;;;3.95;3.00;;;19.10;56.10;;;20.27;45.46;98724.25;5414365;26;20051;-37
2024/04/13 10:25:31;;;;;;;8.00;3.60;;;19.10;55.80;;;20.36;45.38;98716.81;5413936;26;20032;-38